sensor_id;sensor_type;location;lat;lon;timestamp;P1;durP1;ratioP1;P2;durP2;ratioP2
75209;SDS011;63796;53.136;14.882;2022-10-16T00:01:38;10.50;;;6.50;;
75209;SDS011;63796;53.136;14.882;2022-10-16T00:04:05;9.28;;;6.83;;
75209;SDS011;63796;53.136;14.882;2022-10-16T00:06:32;13.83;;;7.28;;
75209;SDS011;63796;53.136;14.882;2022-10-16T00:08:59;10.72;;;6.87;;
75209;SDS011;63796;53.136;14.882;2022-10-16T00:11:31;14.93;;;7.50;;
75209;SDS011;63796;53.136;14.882;2022-10-16T00:14:00;9.87;;;6.73;;
75209;SDS011;63796;53.136;14.882;2022-10-16T00:16:29;11.08;;;6.47;;
75209;SDS011;63796;53.136;14.882;2022-10-16T00:18:56;8.98;;;6.60;;
75209;SDS011;63796;53.136;14.882;2022-10-16T00:21:25;9.60;;;6.80;;
75209;SDS011;63796;53.136;14.882;2022-10-16T00:23:59;10.00;;;6.55;;
75209;SDS011;63796;53.136;14.882;2022-10-16T00:26:26;10.20;;;6.93;;
75209;SDS011;63796;53.136;14.882;2022-10-16T00:28:56;12.65;;;6.47;;
75209;SDS011;63796;53.136;14.882;2022-10-16T00:31:22;9.70;;;6.58;;
75209;SDS011;63796;53.136;14.882;2022-10-16T00:33:50;12.93;;;6.17;;
75209;SDS011;63796;53.136;14.882;2022-10-16T00:36:18;8.78;;;5.95;;
75209;SDS011;63796;53.136;14.882;2022-10-16T00:38:50;7.90;;;5.93;;
75209;SDS011;63796;53.136;14.882;2022-10-16T00:41:22;10.75;;;6.25;;
75209;SDS011;63796;53.136;14.882;2022-10-16T00:46:23;9.25;;;6.37;;
75209;SDS011;63796;53.136;14.882;2022-10-16T00:49:00;15.55;;;9.13;;
75209;SDS011;63796;53.136;14.882;2022-10-16T00:54:16;14.47;;;9.93;;
75209;SDS011;63796;53.136;14.882;2022-10-16T00:56:47;18.77;;;10.05;;
75209;SDS011;63796;53.136;14.882;2022-10-16T00:59:16;15.53;;;9.80;;
75209;SDS011;63796;53.136;14.882;2022-10-16T01:01:46;14.87;;;8.73;;
75209;SDS011;63796;53.136;14.882;2022-10-16T01:04:13;11.43;;;8.20;;
75209;SDS011;63796;53.136;14.882;2022-10-16T01:06:43;14.93;;;7.75;;
75209;SDS011;63796;53.136;14.882;2022-10-16T01:09:30;11.63;;;7.97;;
75209;SDS011;63796;53.136;14.882;2022-10-16T01:11:59;8.48;;;6.58;;
75209;SDS011;63796;53.136;14.882;2022-10-16T01:17:49;9.07;;;7.13;;
75209;SDS011;63796;53.136;14.882;2022-10-16T01:23:09;12.03;;;6.85;;
75209;SDS011;63796;53.136;14.882;2022-10-16T01:29:57;8.35;;;6.28;;
75209;SDS011;63796;53.136;14.882;2022-10-16T01:31:55;8.60;;;6.10;;
75209;SDS011;63796;53.136;14.882;2022-10-16T01:34:25;8.63;;;5.85;;
75209;SDS011;63796;53.136;14.882;2022-10-16T01:37:02;9.40;;;6.22;;
75209;SDS011;63796;53.136;14.882;2022-10-16T01:39:31;8.08;;;5.40;;
75209;SDS011;63796;53.136;14.882;2022-10-16T01:42:09;8.60;;;6.22;;
75209;SDS011;63796;53.136;14.882;2022-10-16T01:44:43;6.87;;;5.50;;
75209;SDS011;63796;53.136;14.882;2022-10-16T01:47:14;13.55;;;7.45;;
75209;SDS011;63796;53.136;14.882;2022-10-16T01:49:44;18.40;;;8.58;;
75209;SDS011;63796;53.136;14.882;2022-10-16T01:52:16;14.18;;;7.10;;
75209;SDS011;63796;53.136;14.882;2022-10-16T01:54:47;8.78;;;5.75;;
75209;SDS011;63796;53.136;14.882;2022-10-16T01:57:18;7.93;;;5.40;;
75209;SDS011;63796;53.136;14.882;2022-10-16T01:59:48;9.00;;;5.97;;
75209;SDS011;63796;53.136;14.882;2022-10-16T02:02:19;7.60;;;5.35;;
75209;SDS011;63796;53.136;14.882;2022-10-16T02:04:49;7.37;;;5.80;;
75209;SDS011;63796;53.136;14.882;2022-10-16T02:07:26;9.48;;;5.80;;
75209;SDS011;63796;53.136;14.882;2022-10-16T02:09:53;14.30;;;7.67;;
75209;SDS011;63796;53.136;14.882;2022-10-16T02:14:59;7.70;;;5.37;;
75209;SDS011;63796;53.136;14.882;2022-10-16T02:17:26;8.48;;;5.10;;
75209;SDS011;63796;53.136;14.882;2022-10-16T02:19:53;7.30;;;5.90;;
75209;SDS011;63796;53.136;14.882;2022-10-16T02:22:28;7.80;;;5.47;;
75209;SDS011;63796;53.136;14.882;2022-10-16T02:25:10;8.23;;;5.67;;
75209;SDS011;63796;53.136;14.882;2022-10-16T02:27:49;8.40;;;4.95;;
75209;SDS011;63796;53.136;14.882;2022-10-16T02:30:42;8.93;;;5.50;;
75209;SDS011;63796;53.136;14.882;2022-10-16T02:33:31;8.85;;;5.67;;
75209;SDS011;63796;53.136;14.882;2022-10-16T02:35:59;9.83;;;5.30;;
75209;SDS011;63796;53.136;14.882;2022-10-16T02:38:26;7.47;;;6.00;;
75209;SDS011;63796;53.136;14.882;2022-10-16T02:40:56;8.18;;;5.33;;
75209;SDS011;63796;53.136;14.882;2022-10-16T02:43:24;6.33;;;4.90;;
75209;SDS011;63796;53.136;14.882;2022-10-16T02:45:52;6.90;;;5.08;;
75209;SDS011;63796;53.136;14.882;2022-10-16T02:48:19;7.73;;;5.00;;
75209;SDS011;63796;53.136;14.882;2022-10-16T02:50:45;5.03;;;4.35;;
75209;SDS011;63796;53.136;14.882;2022-10-16T02:53:12;4.90;;;4.40;;
75209;SDS011;63796;53.136;14.882;2022-10-16T02:55:39;6.00;;;4.87;;
75209;SDS011;63796;53.136;14.882;2022-10-16T02:58:06;10.98;;;4.90;;
75209;SDS011;63796;53.136;14.882;2022-10-16T03:00:33;8.83;;;4.40;;
75209;SDS011;63796;53.136;14.882;2022-10-16T03:03:00;6.33;;;4.08;;
75209;SDS011;63796;53.136;14.882;2022-10-16T03:05:26;7.05;;;4.42;;
75209;SDS011;63796;53.136;14.882;2022-10-16T03:07:53;6.17;;;4.53;;
75209;SDS011;63796;53.136;14.882;2022-10-16T03:10:20;5.12;;;3.67;;
75209;SDS011;63796;53.136;14.882;2022-10-16T03:12:47;6.00;;;4.13;;
75209;SDS011;63796;53.136;14.882;2022-10-16T03:15:14;6.28;;;3.90;;
75209;SDS011;63796;53.136;14.882;2022-10-16T03:17:40;5.35;;;3.60;;
75209;SDS011;63796;53.136;14.882;2022-10-16T03:20:07;7.50;;;3.65;;
75209;SDS011;63796;53.136;14.882;2022-10-16T03:22:35;4.62;;;3.42;;
75209;SDS011;63796;53.136;14.882;2022-10-16T03:25:02;6.63;;;3.80;;
75209;SDS011;63796;53.136;14.882;2022-10-16T03:27:29;6.22;;;4.40;;
75209;SDS011;63796;53.136;14.882;2022-10-16T03:29:57;5.50;;;3.60;;
75209;SDS011;63796;53.136;14.882;2022-10-16T03:32:24;5.33;;;3.42;;
75209;SDS011;63796;53.136;14.882;2022-10-16T03:34:50;4.72;;;3.52;;
75209;SDS011;63796;53.136;14.882;2022-10-16T03:37:19;4.30;;;2.87;;
75209;SDS011;63796;53.136;14.882;2022-10-16T03:39:46;3.45;;;3.15;;
75209;SDS011;63796;53.136;14.882;2022-10-16T03:42:13;4.15;;;3.05;;
75209;SDS011;63796;53.136;14.882;2022-10-16T03:44:40;3.30;;;2.95;;
75209;SDS011;63796;53.136;14.882;2022-10-16T03:47:06;6.83;;;3.02;;
75209;SDS011;63796;53.136;14.882;2022-10-16T03:49:33;4.57;;;2.60;;
75209;SDS011;63796;53.136;14.882;2022-10-16T03:52:00;4.12;;;2.75;;
75209;SDS011;63796;53.136;14.882;2022-10-16T03:54:27;4.20;;;2.60;;
75209;SDS011;63796;53.136;14.882;2022-10-16T03:56:54;2.90;;;2.60;;
75209;SDS011;63796;53.136;14.882;2022-10-16T03:59:21;3.37;;;2.37;;
75209;SDS011;63796;53.136;14.882;2022-10-16T04:01:48;2.83;;;2.53;;
75209;SDS011;63796;53.136;14.882;2022-10-16T04:04:15;3.42;;;2.60;;
75209;SDS011;63796;53.136;14.882;2022-10-16T04:06:41;2.90;;;2.60;;
75209;SDS011;63796;53.136;14.882;2022-10-16T04:09:08;3.40;;;2.60;;
75209;SDS011;63796;53.136;14.882;2022-10-16T04:11:35;6.72;;;2.65;;
75209;SDS011;63796;53.136;14.882;2022-10-16T04:14:02;2.60;;;2.40;;
75209;SDS011;63796;53.136;14.882;2022-10-16T04:16:29;2.62;;;2.37;;
75209;SDS011;63796;53.136;14.882;2022-10-16T04:18:56;3.58;;;2.55;;
75209;SDS011;63796;53.136;14.882;2022-10-16T04:21:23;2.72;;;2.52;;
75209;SDS011;63796;53.136;14.882;2022-10-16T04:23:50;2.62;;;2.25;;
75209;SDS011;63796;53.136;14.882;2022-10-16T04:26:17;3.10;;;2.67;;
75209;SDS011;63796;53.136;14.882;2022-10-16T04:28:44;4.15;;;2.45;;
75209;SDS011;63796;53.136;14.882;2022-10-16T04:31:10;4.03;;;2.72;;
75209;SDS011;63796;53.136;14.882;2022-10-16T04:33:37;4.17;;;2.42;;
75209;SDS011;63796;53.136;14.882;2022-10-16T04:36:04;3.62;;;2.40;;
75209;SDS011;63796;53.136;14.882;2022-10-16T04:38:31;3.90;;;2.30;;
75209;SDS011;63796;53.136;14.882;2022-10-16T04:40:58;5.37;;;2.20;;
75209;SDS011;63796;53.136;14.882;2022-10-16T04:43:25;3.00;;;2.30;;
75209;SDS011;63796;53.136;14.882;2022-10-16T04:45:52;3.10;;;2.50;;
75209;SDS011;63796;53.136;14.882;2022-10-16T04:48:20;3.62;;;2.40;;
75209;SDS011;63796;53.136;14.882;2022-10-16T04:50:47;4.50;;;1.80;;
75209;SDS011;63796;53.136;14.882;2022-10-16T04:53:13;2.55;;;2.00;;
75209;SDS011;63796;53.136;14.882;2022-10-16T04:55:40;4.28;;;2.20;;
75209;SDS011;63796;53.136;14.882;2022-10-16T04:58:08;3.22;;;2.20;;
75209;SDS011;63796;53.136;14.882;2022-10-16T05:00:35;2.72;;;2.40;;
75209;SDS011;63796;53.136;14.882;2022-10-16T05:03:02;2.83;;;2.23;;
75209;SDS011;63796;53.136;14.882;2022-10-16T05:05:31;3.00;;;1.95;;
75209;SDS011;63796;53.136;14.882;2022-10-16T05:07:58;2.35;;;2.15;;
75209;SDS011;63796;53.136;14.882;2022-10-16T05:10:25;3.62;;;2.15;;
75209;SDS011;63796;53.136;14.882;2022-10-16T05:12:51;3.87;;;2.42;;
75209;SDS011;63796;53.136;14.882;2022-10-16T05:15:18;2.30;;;2.00;;
75209;SDS011;63796;53.136;14.882;2022-10-16T05:17:46;5.28;;;2.50;;
75209;SDS011;63796;53.136;14.882;2022-10-16T05:20:13;2.47;;;2.27;;
75209;SDS011;63796;53.136;14.882;2022-10-16T05:22:40;3.00;;;2.08;;
75209;SDS011;63796;53.136;14.882;2022-10-16T05:25:07;4.65;;;1.95;;
75209;SDS011;63796;53.136;14.882;2022-10-16T05:27:34;3.90;;;2.20;;
75209;SDS011;63796;53.136;14.882;2022-10-16T05:30:01;2.47;;;2.27;;
75209;SDS011;63796;53.136;14.882;2022-10-16T05:32:28;3.27;;;2.12;;
75209;SDS011;63796;53.136;14.882;2022-10-16T05:34:55;2.08;;;1.87;;
75209;SDS011;63796;53.136;14.882;2022-10-16T05:37:22;2.62;;;2.30;;
75209;SDS011;63796;53.136;14.882;2022-10-16T05:39:49;4.33;;;1.90;;
75209;SDS011;63796;53.136;14.882;2022-10-16T05:42:15;6.60;;;3.12;;
75209;SDS011;63796;53.136;14.882;2022-10-16T05:44:42;3.60;;;2.20;;
75209;SDS011;63796;53.136;14.882;2022-10-16T05:47:09;3.95;;;2.35;;
75209;SDS011;63796;53.136;14.882;2022-10-16T05:49:38;2.42;;;2.22;;
75209;SDS011;63796;53.136;14.882;2022-10-16T05:52:04;8.50;;;2.03;;
75209;SDS011;63796;53.136;14.882;2022-10-16T05:54:31;3.37;;;2.00;;
75209;SDS011;63796;53.136;14.882;2022-10-16T05:56:58;3.70;;;2.30;;
75209;SDS011;63796;53.136;14.882;2022-10-16T05:59:25;3.37;;;2.17;;
75209;SDS011;63796;53.136;14.882;2022-10-16T06:01:52;2.75;;;2.40;;
75209;SDS011;63796;53.136;14.882;2022-10-16T06:04:19;3.57;;;2.00;;
75209;SDS011;63796;53.136;14.882;2022-10-16T06:06:46;2.37;;;1.92;;
75209;SDS011;63796;53.136;14.882;2022-10-16T06:09:13;3.80;;;2.02;;
75209;SDS011;63796;53.136;14.882;2022-10-16T06:11:40;3.12;;;2.62;;
75209;SDS011;63796;53.136;14.882;2022-10-16T06:14:07;2.50;;;1.95;;
75209;SDS011;63796;53.136;14.882;2022-10-16T06:16:35;2.30;;;2.10;;
75209;SDS011;63796;53.136;14.882;2022-10-16T06:19:03;2.10;;;1.90;;
75209;SDS011;63796;53.136;14.882;2022-10-16T06:21:34;4.28;;;1.87;;
75209;SDS011;63796;53.136;14.882;2022-10-16T06:24:01;1.90;;;1.80;;
75209;SDS011;63796;53.136;14.882;2022-10-16T06:26:29;3.58;;;1.80;;
75209;SDS011;63796;53.136;14.882;2022-10-16T06:28:58;1.97;;;1.80;;
75209;SDS011;63796;53.136;14.882;2022-10-16T06:31:27;4.15;;;2.00;;
75209;SDS011;63796;53.136;14.882;2022-10-16T06:33:57;2.20;;;1.70;;
75209;SDS011;63796;53.136;14.882;2022-10-16T06:36:25;2.98;;;1.70;;
75209;SDS011;63796;53.136;14.882;2022-10-16T06:38:54;2.20;;;2.00;;
75209;SDS011;63796;53.136;14.882;2022-10-16T06:41:22;2.20;;;2.00;;
75209;SDS011;63796;53.136;14.882;2022-10-16T06:43:49;2.62;;;1.70;;
75209;SDS011;63796;53.136;14.882;2022-10-16T06:46:18;1.75;;;1.65;;
75209;SDS011;63796;53.136;14.882;2022-10-16T06:48:48;2.25;;;1.75;;
75209;SDS011;63796;53.136;14.882;2022-10-16T06:51:15;2.00;;;1.70;;
75209;SDS011;63796;53.136;14.882;2022-10-16T06:53:49;1.90;;;1.60;;
75209;SDS011;63796;53.136;14.882;2022-10-16T06:56:20;2.50;;;1.77;;
75209;SDS011;63796;53.136;14.882;2022-10-16T06:58:50;3.35;;;1.65;;
75209;SDS011;63796;53.136;14.882;2022-10-16T07:01:19;3.70;;;1.75;;
75209;SDS011;63796;53.136;14.882;2022-10-16T07:03:49;3.35;;;2.00;;
75209;SDS011;63796;53.136;14.882;2022-10-16T07:06:18;1.90;;;1.60;;
75209;SDS011;63796;53.136;14.882;2022-10-16T07:08:48;1.77;;;1.67;;
75209;SDS011;63796;53.136;14.882;2022-10-16T07:11:20;2.37;;;1.67;;
75209;SDS011;63796;53.136;14.882;2022-10-16T07:13:48;4.45;;;1.80;;
75209;SDS011;63796;53.136;14.882;2022-10-16T07:16:18;5.12;;;2.00;;
75209;SDS011;63796;53.136;14.882;2022-10-16T07:18:47;4.80;;;2.10;;
75209;SDS011;63796;53.136;14.882;2022-10-16T07:21:16;2.17;;;1.80;;
75209;SDS011;63796;53.136;14.882;2022-10-16T07:23:57;3.83;;;1.65;;
75209;SDS011;63796;53.136;14.882;2022-10-16T07:26:23;2.47;;;2.10;;
75209;SDS011;63796;53.136;14.882;2022-10-16T07:28:51;2.12;;;1.95;;
75209;SDS011;63796;53.136;14.882;2022-10-16T07:31:18;4.10;;;2.20;;
75209;SDS011;63796;53.136;14.882;2022-10-16T07:33:46;2.40;;;1.80;;
75209;SDS011;63796;53.136;14.882;2022-10-16T07:36:15;3.37;;;1.80;;
75209;SDS011;63796;53.136;14.882;2022-10-16T07:38:44;2.72;;;1.87;;
75209;SDS011;63796;53.136;14.882;2022-10-16T07:41:12;3.65;;;1.70;;
75209;SDS011;63796;53.136;14.882;2022-10-16T07:43:48;4.60;;;1.83;;
75209;SDS011;63796;53.136;14.882;2022-10-16T07:46:18;1.77;;;1.62;;
75209;SDS011;63796;53.136;14.882;2022-10-16T07:48:46;1.67;;;1.47;;
75209;SDS011;63796;53.136;14.882;2022-10-16T07:51:14;3.10;;;1.47;;
75209;SDS011;63796;53.136;14.882;2022-10-16T07:53:44;2.40;;;1.50;;
75209;SDS011;63796;53.136;14.882;2022-10-16T07:56:11;2.37;;;1.37;;
75209;SDS011;63796;53.136;14.882;2022-10-16T07:58:40;2.20;;;1.55;;
75209;SDS011;63796;53.136;14.882;2022-10-16T08:01:08;2.58;;;1.45;;
75209;SDS011;63796;53.136;14.882;2022-10-16T08:03:41;2.65;;;1.55;;
75209;SDS011;63796;53.136;14.882;2022-10-16T08:06:12;3.62;;;1.60;;
75209;SDS011;63796;53.136;14.882;2022-10-16T08:08:39;1.97;;;1.23;;
75209;SDS011;63796;53.136;14.882;2022-10-16T08:11:06;1.98;;;1.50;;
75209;SDS011;63796;53.136;14.882;2022-10-16T08:13:34;2.00;;;1.20;;
75209;SDS011;63796;53.136;14.882;2022-10-16T08:16:01;2.25;;;1.10;;
75209;SDS011;63796;53.136;14.882;2022-10-16T08:18:30;4.03;;;1.20;;
75209;SDS011;63796;53.136;14.882;2022-10-16T08:20:58;2.30;;;1.10;;
75209;SDS011;63796;53.136;14.882;2022-10-16T08:23:26;2.80;;;1.37;;
75209;SDS011;63796;53.136;14.882;2022-10-16T08:25:55;3.25;;;1.32;;
75209;SDS011;63796;53.136;14.882;2022-10-16T08:28:24;1.50;;;1.22;;
75209;SDS011;63796;53.136;14.882;2022-10-16T08:30:51;3.72;;;1.25;;
75209;SDS011;63796;53.136;14.882;2022-10-16T08:33:18;1.70;;;1.10;;
75209;SDS011;63796;53.136;14.882;2022-10-16T08:35:53;3.25;;;1.50;;
75209;SDS011;63796;53.136;14.882;2022-10-16T08:38:20;3.22;;;1.32;;
75209;SDS011;63796;53.136;14.882;2022-10-16T08:40:47;2.20;;;1.60;;
75209;SDS011;63796;53.136;14.882;2022-10-16T08:49:11;3.37;;;1.27;;
75209;SDS011;63796;53.136;14.882;2022-10-16T08:54:04;1.70;;;1.60;;
75209;SDS011;63796;53.136;14.882;2022-10-16T08:56:56;2.98;;;1.42;;
75209;SDS011;63796;53.136;14.882;2022-10-16T08:59:29;3.57;;;1.17;;
75209;SDS011;63796;53.136;14.882;2022-10-16T09:01:56;2.72;;;1.22;;
75209;SDS011;63796;53.136;14.882;2022-10-16T09:05:26;3.75;;;1.45;;
75209;SDS011;63796;53.136;14.882;2022-10-16T09:13:28;2.27;;;1.20;;
75209;SDS011;63796;53.136;14.882;2022-10-16T09:21:58;3.87;;;1.40;;
75209;SDS011;63796;53.136;14.882;2022-10-16T09:24:29;2.75;;;1.50;;
75209;SDS011;63796;53.136;14.882;2022-10-16T09:26:56;4.00;;;1.60;;
75209;SDS011;63796;53.136;14.882;2022-10-16T09:29:23;2.30;;;1.30;;
75209;SDS011;63796;53.136;14.882;2022-10-16T09:31:50;1.75;;;1.42;;
75209;SDS011;63796;53.136;14.882;2022-10-16T09:34:24;5.28;;;1.52;;
75209;SDS011;63796;53.136;14.882;2022-10-16T09:36:55;6.15;;;1.30;;
75209;SDS011;63796;53.136;14.882;2022-10-16T09:39:26;1.87;;;1.10;;
75209;SDS011;63796;53.136;14.882;2022-10-16T09:41:53;5.97;;;1.30;;
75209;SDS011;63796;53.136;14.882;2022-10-16T09:47:01;2.05;;;0.82;;
75209;SDS011;63796;53.136;14.882;2022-10-16T09:49:32;4.30;;;1.10;;
75209;SDS011;63796;53.136;14.882;2022-10-16T09:52:05;2.67;;;0.97;;
75209;SDS011;63796;53.136;14.882;2022-10-16T09:54:37;1.05;;;0.95;;
75209;SDS011;63796;53.136;14.882;2022-10-16T09:57:20;1.60;;;1.20;;
75209;SDS011;63796;53.136;14.882;2022-10-16T09:59:49;3.70;;;1.02;;
75209;SDS011;63796;53.136;14.882;2022-10-16T10:02:31;1.20;;;1.10;;
75209;SDS011;63796;53.136;14.882;2022-10-16T10:04:59;2.70;;;0.90;;
75209;SDS011;63796;53.136;14.882;2022-10-16T10:07:28;2.33;;;1.00;;
75209;SDS011;63796;53.136;14.882;2022-10-16T10:10:03;3.45;;;1.00;;
75209;SDS011;63796;53.136;14.882;2022-10-16T10:12:32;3.92;;;1.02;;
75209;SDS011;63796;53.136;14.882;2022-10-16T10:15:06;3.95;;;0.80;;
75209;SDS011;63796;53.136;14.882;2022-10-16T10:20:22;3.10;;;1.35;;
75209;SDS011;63796;53.136;14.882;2022-10-16T10:22:56;3.65;;;1.30;;
75209;SDS011;63796;53.136;14.882;2022-10-16T10:31:58;3.37;;;1.50;;
75209;SDS011;63796;53.136;14.882;2022-10-16T10:39:58;3.30;;;1.60;;
75209;SDS011;63796;53.136;14.882;2022-10-16T10:42:33;4.50;;;1.55;;
75209;SDS011;63796;53.136;14.882;2022-10-16T10:45:36;4.17;;;1.77;;
75209;SDS011;63796;53.136;14.882;2022-10-16T10:48:19;2.65;;;1.72;;
75209;SDS011;63796;53.136;14.882;2022-10-16T10:54:09;1.47;;;1.20;;
75209;SDS011;63796;53.136;14.882;2022-10-16T10:56:41;2.17;;;1.10;;
75209;SDS011;63796;53.136;14.882;2022-10-16T11:06:00;4.28;;;1.30;;
75209;SDS011;63796;53.136;14.882;2022-10-16T11:07:56;1.35;;;1.10;;
75209;SDS011;63796;53.136;14.882;2022-10-16T11:10:34;1.60;;;1.17;;
75209;SDS011;63796;53.136;14.882;2022-10-16T11:16:28;1.27;;;1.00;;
75209;SDS011;63796;53.136;14.882;2022-10-16T11:19:04;1.25;;;0.95;;
75209;SDS011;63796;53.136;14.882;2022-10-16T11:24:49;3.12;;;1.65;;
75209;SDS011;63796;53.136;14.882;2022-10-16T11:30:26;3.47;;;2.92;;
75209;SDS011;63796;53.136;14.882;2022-10-16T11:44:36;18.05;;;10.05;;
75209;SDS011;63796;53.136;14.882;2022-10-16T11:47:42;19.07;;;8.90;;
75209;SDS011;63796;53.136;14.882;2022-10-16T11:55:56;6.37;;;2.70;;
75209;SDS011;63796;53.136;14.882;2022-10-16T11:58:47;38.80;;;16.02;;
75209;SDS011;63796;53.136;14.882;2022-10-16T12:01:31;9.35;;;4.17;;
75209;SDS011;63796;53.136;14.882;2022-10-16T12:07:02;2.02;;;1.67;;
75209;SDS011;63796;53.136;14.882;2022-10-16T12:09:38;10.87;;;5.20;;
75209;SDS011;63796;53.136;14.882;2022-10-16T12:12:27;5.95;;;2.77;;
75209;SDS011;63796;53.136;14.882;2022-10-16T12:15:18;4.80;;;2.00;;
75209;SDS011;63796;53.136;14.882;2022-10-16T12:17:50;10.72;;;5.05;;
75209;SDS011;63796;53.136;14.882;2022-10-16T12:23:01;19.17;;;8.43;;
75209;SDS011;63796;53.136;14.882;2022-10-16T12:25:32;8.40;;;3.80;;
75209;SDS011;63796;53.136;14.882;2022-10-16T12:28:04;7.00;;;3.77;;
75209;SDS011;63796;53.136;14.882;2022-10-16T12:31:00;7.62;;;3.98;;
75209;SDS011;63796;53.136;14.882;2022-10-16T12:33:34;12.33;;;6.33;;
75209;SDS011;63796;53.136;14.882;2022-10-16T12:36:07;5.57;;;4.50;;
75209;SDS011;63796;53.136;14.882;2022-10-16T12:38:48;10.28;;;4.62;;
75209;SDS011;63796;53.136;14.882;2022-10-16T12:41:30;11.97;;;4.78;;
75209;SDS011;63796;53.136;14.882;2022-10-16T12:44:20;2.10;;;1.20;;
75209;SDS011;63796;53.136;14.882;2022-10-16T12:46:49;1.30;;;1.20;;
75209;SDS011;63796;53.136;14.882;2022-10-16T12:49:29;1.47;;;1.00;;
75209;SDS011;63796;53.136;14.882;2022-10-16T12:51:57;1.45;;;1.35;;
75209;SDS011;63796;53.136;14.882;2022-10-16T12:54:37;1.80;;;1.30;;
75209;SDS011;63796;53.136;14.882;2022-10-16T13:03:19;2.27;;;2.00;;
75209;SDS011;63796;53.136;14.882;2022-10-16T13:11:27;4.65;;;4.25;;
75209;SDS011;63796;53.136;14.882;2022-10-16T13:20:03;1.55;;;1.00;;
75209;SDS011;63796;53.136;14.882;2022-10-16T13:23:14;3.42;;;2.45;;
75209;SDS011;63796;53.136;14.882;2022-10-16T13:25:56;10.30;;;5.95;;
75209;SDS011;63796;53.136;14.882;2022-10-16T13:28:34;7.83;;;4.10;;
75209;SDS011;63796;53.136;14.882;2022-10-16T13:31:04;4.63;;;2.40;;
75209;SDS011;63796;53.136;14.882;2022-10-16T13:33:34;1.22;;;0.80;;
75209;SDS011;63796;53.136;14.882;2022-10-16T13:36:05;0.90;;;0.90;;
75209;SDS011;63796;53.136;14.882;2022-10-16T13:38:33;6.03;;;2.87;;
75209;SDS011;63796;53.136;14.882;2022-10-16T13:41:03;9.00;;;5.35;;
75209;SDS011;63796;53.136;14.882;2022-10-16T13:46:22;10.30;;;5.50;;
75209;SDS011;63796;53.136;14.882;2022-10-16T13:48:57;3.22;;;1.50;;
75209;SDS011;63796;53.136;14.882;2022-10-16T13:51:27;4.78;;;1.40;;
75209;SDS011;63796;53.136;14.882;2022-10-16T13:53:55;7.90;;;3.60;;
75209;SDS011;63796;53.136;14.882;2022-10-16T13:56:38;13.77;;;5.70;;
75209;SDS011;63796;53.136;14.882;2022-10-16T13:59:02;8.58;;;3.27;;
75209;SDS011;63796;53.136;14.882;2022-10-16T14:01:42;12.63;;;2.90;;
75209;SDS011;63796;53.136;14.882;2022-10-16T14:04:11;10.30;;;4.22;;
75209;SDS011;63796;53.136;14.882;2022-10-16T14:06:41;8.93;;;3.60;;
75209;SDS011;63796;53.136;14.882;2022-10-16T14:09:27;21.67;;;5.77;;
75209;SDS011;63796;53.136;14.882;2022-10-16T14:11:59;4.65;;;1.55;;
75209;SDS011;63796;53.136;14.882;2022-10-16T14:17:26;9.85;;;3.87;;
75209;SDS011;63796;53.136;14.882;2022-10-16T14:20:02;8.28;;;2.85;;
75209;SDS011;63796;53.136;14.882;2022-10-16T14:22:35;9.70;;;3.50;;
75209;SDS011;63796;53.136;14.882;2022-10-16T14:30:32;43.30;;;27.32;;
75209;SDS011;63796;53.136;14.882;2022-10-16T14:33:05;37.48;;;27.35;;
75209;SDS011;63796;53.136;14.882;2022-10-16T14:35:57;32.33;;;23.30;;
75209;SDS011;63796;53.136;14.882;2022-10-16T14:38:31;8.70;;;6.78;;
75209;SDS011;63796;53.136;14.882;2022-10-16T14:40:59;15.88;;;10.60;;
75209;SDS011;63796;53.136;14.882;2022-10-16T14:46:11;14.07;;;12.07;;
75209;SDS011;63796;53.136;14.882;2022-10-16T14:48:42;11.80;;;10.60;;
75209;SDS011;63796;53.136;14.882;2022-10-16T14:51:13;19.80;;;17.70;;
75209;SDS011;63796;53.136;14.882;2022-10-16T14:53:43;8.30;;;6.03;;
75209;SDS011;63796;53.136;14.882;2022-10-16T14:56:16;11.83;;;9.65;;
75209;SDS011;63796;53.136;14.882;2022-10-16T14:58:49;7.62;;;6.30;;
75209;SDS011;63796;53.136;14.882;2022-10-16T15:01:17;5.67;;;0.90;;
75209;SDS011;63796;53.136;14.882;2022-10-16T15:03:45;1.50;;;0.80;;
75209;SDS011;63796;53.136;14.882;2022-10-16T15:06:15;39.33;;;31.55;;
75209;SDS011;63796;53.136;14.882;2022-10-16T15:08:43;20.72;;;16.10;;
75209;SDS011;63796;53.136;14.882;2022-10-16T15:11:14;11.45;;;10.25;;
75209;SDS011;63796;53.136;14.882;2022-10-16T15:13:44;9.93;;;8.00;;
75209;SDS011;63796;53.136;14.882;2022-10-16T15:16:12;14.95;;;8.73;;
75209;SDS011;63796;53.136;14.882;2022-10-16T15:18:42;13.75;;;6.90;;
75209;SDS011;63796;53.136;14.882;2022-10-16T15:21:26;17.85;;;12.50;;
75209;SDS011;63796;53.136;14.882;2022-10-16T15:23:55;8.58;;;4.15;;
75209;SDS011;63796;53.136;14.882;2022-10-16T15:26:28;8.60;;;6.00;;
75209;SDS011;63796;53.136;14.882;2022-10-16T15:28:55;8.15;;;4.67;;
75209;SDS011;63796;53.136;14.882;2022-10-16T15:31:22;11.63;;;6.90;;
75209;SDS011;63796;53.136;14.882;2022-10-16T15:33:50;6.83;;;3.67;;
75209;SDS011;63796;53.136;14.882;2022-10-16T15:36:31;6.53;;;3.50;;
75209;SDS011;63796;53.136;14.882;2022-10-16T15:38:59;12.37;;;8.00;;
75209;SDS011;63796;53.136;14.882;2022-10-16T15:41:26;9.70;;;5.25;;
75209;SDS011;63796;53.136;14.882;2022-10-16T15:43:52;6.30;;;4.30;;
75209;SDS011;63796;53.136;14.882;2022-10-16T15:46:20;5.08;;;2.98;;
75209;SDS011;63796;53.136;14.882;2022-10-16T15:48:50;11.45;;;5.17;;
75209;SDS011;63796;53.136;14.882;2022-10-16T15:51:20;9.37;;;4.30;;
75209;SDS011;63796;53.136;14.882;2022-10-16T15:53:47;6.25;;;3.92;;
75209;SDS011;63796;53.136;14.882;2022-10-16T15:56:16;10.68;;;4.37;;
75209;SDS011;63796;53.136;14.882;2022-10-16T15:58:43;3.85;;;2.05;;
75209;SDS011;63796;53.136;14.882;2022-10-16T16:01:11;1.75;;;1.30;;
75209;SDS011;63796;53.136;14.882;2022-10-16T16:03:38;2.30;;;1.40;;
75209;SDS011;63796;53.136;14.882;2022-10-16T16:06:11;2.92;;;1.22;;
75209;SDS011;63796;53.136;14.882;2022-10-16T16:08:36;1.62;;;1.20;;
75209;SDS011;63796;53.136;14.882;2022-10-16T16:11:06;3.27;;;1.92;;
75209;SDS011;63796;53.136;14.882;2022-10-16T16:13:36;2.17;;;1.20;;
75209;SDS011;63796;53.136;14.882;2022-10-16T16:16:07;1.87;;;1.10;;
75209;SDS011;63796;53.136;14.882;2022-10-16T16:18:37;2.87;;;1.47;;
75209;SDS011;63796;53.136;14.882;2022-10-16T16:21:05;3.70;;;2.20;;
75209;SDS011;63796;53.136;14.882;2022-10-16T16:23:32;2.42;;;1.50;;
75209;SDS011;63796;53.136;14.882;2022-10-16T16:26:12;4.20;;;1.22;;
75209;SDS011;63796;53.136;14.882;2022-10-16T16:29:00;2.67;;;1.20;;
75209;SDS011;63796;53.136;14.882;2022-10-16T16:31:27;3.52;;;1.70;;
75209;SDS011;63796;53.136;14.882;2022-10-16T16:33:59;5.03;;;1.87;;
75209;SDS011;63796;53.136;14.882;2022-10-16T16:36:26;1.80;;;1.60;;
75209;SDS011;63796;53.136;14.882;2022-10-16T16:38:52;37.55;;;22.48;;
75209;SDS011;63796;53.136;14.882;2022-10-16T16:41:20;3.10;;;1.60;;
75209;SDS011;63796;53.136;14.882;2022-10-16T16:43:51;6.03;;;1.10;;
75209;SDS011;63796;53.136;14.882;2022-10-16T16:46:20;2.65;;;0.90;;
75209;SDS011;63796;53.136;14.882;2022-10-16T16:48:47;3.50;;;0.88;;
75209;SDS011;63796;53.136;14.882;2022-10-16T16:51:19;1.72;;;0.80;;
75209;SDS011;63796;53.136;14.882;2022-10-16T16:53:47;3.20;;;1.10;;
75209;SDS011;63796;53.136;14.882;2022-10-16T16:56:19;2.95;;;1.00;;
75209;SDS011;63796;53.136;14.882;2022-10-16T16:58:47;4.75;;;1.80;;
75209;SDS011;63796;53.136;14.882;2022-10-16T17:01:16;3.67;;;2.20;;